FDX9008 OMDW-FAOR
Flight info
| Callsign | FDX9008 |
|---|---|
| Flight time | N/A |
| Altitude | 35000 |
| Route | ANVIX L223 TARDI N629 GIDAN P570 KITAL L516 UNRIV/N0489F360 G424 VUTAS UG424 GEPAR/N0483F380 UG424 ANVET UT940 AVIGO UG424 DV UM310 VBR UM307 EPSEK/N0492F280 UG465 WIV |
| Aircraft | B77L/H-SDE1E2E3FGHIJ2J3J4J5M1RWXY/LB1D1 |
Departure
| Time | 2026-04-27 01:02 |
|---|---|
| Airport | Al Maktoum International Airport (OMDW) |
Arrival
| Time | N/A |
|---|---|
| Airport | O.R. Tambo International Airport (FAOR) |
| Time | Latitude | Longitude | Altitude | Speed | Heading |
|---|---|---|---|---|---|
| 2026-04-27 00:37 | 24.89625 | 55.14565 | 164 ft | 0 kts | 301° |
| 2026-04-27 00:46 | 24.89623 | 55.14570 | 164 ft | 4 kts | 302° |
| 2026-04-27 00:47 | 24.89613 | 55.14587 | 164 ft | 4 kts | 305° |
| 2026-04-27 00:47 | 24.89596 | 55.14610 | 164 ft | 4 kts | 311° |
| 2026-04-27 00:47 | 24.89577 | 55.14632 | 164 ft | 4 kts | 322° |
| 2026-04-27 00:47 | 24.89555 | 55.14646 | 164 ft | 4 kts | 353° |
| 2026-04-27 00:48 | 24.89541 | 55.14645 | 164 ft | 1 kts | 26° |
| 2026-04-27 00:51 | 24.89567 | 55.14659 | 164 ft | 8 kts | 28° |
| 2026-04-27 00:51 | 24.89633 | 55.14703 | 164 ft | 14 kts | 31° |
| 2026-04-27 00:51 | 24.89720 | 55.14761 | 163 ft | 15 kts | 31° |
| 2026-04-27 00:51 | 24.89815 | 55.14824 | 163 ft | 13 kts | 31° |
| 2026-04-27 00:52 | 24.89906 | 55.14885 | 163 ft | 17 kts | 32° |
| 2026-04-27 00:52 | 24.90005 | 55.14950 | 163 ft | 16 kts | 31° |
| 2026-04-27 00:52 | 24.90013 | 55.15063 | 164 ft | 18 kts | 120° |
| 2026-04-27 00:52 | 24.89942 | 55.15192 | 163 ft | 21 kts | 121° |
| 2026-04-27 00:53 | 24.89870 | 55.15324 | 163 ft | 20 kts | 121° |
| 2026-04-27 00:53 | 24.89823 | 55.15408 | 163 ft | 12 kts | 122° |
| 2026-04-27 00:53 | 24.89779 | 55.15487 | 163 ft | 12 kts | 121° |
| 2026-04-27 00:53 | 24.89734 | 55.15568 | 162 ft | 12 kts | 121° |
| 2026-04-27 00:54 | 24.89689 | 55.15649 | 162 ft | 12 kts | 121° |
| 2026-04-27 00:54 | 24.89646 | 55.15729 | 163 ft | 12 kts | 121° |
| 2026-04-27 00:54 | 24.89601 | 55.15810 | 163 ft | 13 kts | 121° |
| 2026-04-27 00:54 | 24.89555 | 55.15892 | 163 ft | 13 kts | 122° |
| 2026-04-27 00:55 | 24.89508 | 55.15974 | 163 ft | 13 kts | 121° |
| 2026-04-27 00:55 | 24.89463 | 55.16057 | 163 ft | 13 kts | 121° |
| 2026-04-27 00:55 | 24.89417 | 55.16140 | 163 ft | 13 kts | 121° |
| 2026-04-27 00:55 | 24.89371 | 55.16222 | 163 ft | 13 kts | 122° |
| 2026-04-27 00:56 | 24.89323 | 55.16303 | 163 ft | 13 kts | 124° |
| 2026-04-27 00:56 | 24.89276 | 55.16384 | 163 ft | 13 kts | 110° |
| 2026-04-27 00:56 | 24.89237 | 55.16470 | 162 ft | 13 kts | 117° |
| 2026-04-27 00:56 | 24.89192 | 55.16554 | 162 ft | 13 kts | 126° |
| 2026-04-27 00:57 | 24.89142 | 55.16635 | 162 ft | 13 kts | 121° |
| 2026-04-27 00:57 | 24.89096 | 55.16720 | 162 ft | 13 kts | 121° |
| 2026-04-27 00:57 | 24.89051 | 55.16803 | 162 ft | 13 kts | 121° |
| 2026-04-27 00:57 | 24.89004 | 55.16887 | 164 ft | 13 kts | 121° |
| 2026-04-27 00:58 | 24.88958 | 55.16970 | 162 ft | 13 kts | 121° |
| 2026-04-27 00:58 | 24.88911 | 55.17054 | 163 ft | 13 kts | 122° |
| 2026-04-27 00:58 | 24.88865 | 55.17138 | 163 ft | 13 kts | 121° |
| 2026-04-27 00:58 | 24.88818 | 55.17221 | 163 ft | 13 kts | 121° |
| 2026-04-27 00:59 | 24.88772 | 55.17304 | 163 ft | 13 kts | 122° |
| 2026-04-27 00:59 | 24.88726 | 55.17388 | 163 ft | 13 kts | 121° |
| 2026-04-27 00:59 | 24.88679 | 55.17471 | 162 ft | 13 kts | 122° |
| 2026-04-27 00:59 | 24.88633 | 55.17555 | 162 ft | 13 kts | 121° |
| 2026-04-27 01:00 | 24.88588 | 55.17638 | 162 ft | 13 kts | 121° |
| 2026-04-27 01:00 | 24.88541 | 55.17721 | 162 ft | 13 kts | 122° |
| 2026-04-27 01:00 | 24.88494 | 55.17804 | 162 ft | 13 kts | 122° |
| 2026-04-27 01:00 | 24.88473 | 55.17894 | 162 ft | 13 kts | 68° |
| 2026-04-27 01:01 | 24.88545 | 55.17952 | 162 ft | 13 kts | 30° |
| 2026-04-27 01:01 | 24.88626 | 55.17973 | 162 ft | 13 kts | 328° |
| 2026-04-27 01:01 | 24.88675 | 55.17888 | 162 ft | 14 kts | 301° |
| 2026-04-27 01:01 | 24.88830 | 55.17609 | 162 ft | 79 kts | 301° |
| 2026-04-27 01:02 | 24.89236 | 55.16875 | 162 ft | 143 kts | 301° |
| 2026-04-27 01:02 | 24.89839 | 55.15788 | 296 ft | 174 kts | 301° |
| 2026-04-27 01:02 | 24.90459 | 55.14743 | 1071 ft | 158 kts | 304° |
| 2026-04-27 01:02 | 24.91074 | 55.13736 | 1661 ft | 158 kts | 305° |
| 2026-04-27 01:03 | 24.91675 | 55.12729 | 2158 ft | 168 kts | 302° |
| 2026-04-27 01:03 | 24.92297 | 55.11518 | 2378 ft | 195 kts | 301° |
| 2026-04-27 01:03 | 24.92999 | 55.10174 | 2834 ft | 207 kts | 302° |
| 2026-04-27 01:03 | 24.93744 | 55.08788 | 3490 ft | 212 kts | 302° |
| 2026-04-27 01:04 | 24.94514 | 55.07375 | 4167 ft | 217 kts | 302° |
| 2026-04-27 01:04 | 24.95254 | 55.05946 | 4856 ft | 217 kts | 292° |
| 2026-04-27 01:04 | 24.95428 | 55.04276 | 5454 ft | 228 kts | 263° |
| 2026-04-27 01:04 | 24.94817 | 55.02641 | 6149 ft | 237 kts | 240° |
| 2026-04-27 01:05 | 24.93574 | 55.01368 | 6768 ft | 247 kts | 216° |
| 2026-04-27 01:05 | 24.92094 | 55.00430 | 7336 ft | 251 kts | 212° |
| 2026-04-27 01:05 | 24.90361 | 54.99980 | 7854 ft | 268 kts | 179° |
| 2026-04-27 01:05 | 24.88584 | 55.00661 | 8466 ft | 277 kts | 143° |
| 2026-04-27 01:06 | 24.87353 | 55.02294 | 9060 ft | 280 kts | 120° |
| 2026-04-27 01:06 | 24.86407 | 55.04193 | 9521 ft | 285 kts | 110° |
| 2026-04-27 01:06 | 24.86130 | 55.06355 | 9878 ft | 293 kts | 77° |
| 2026-04-27 01:06 | 24.86630 | 55.08582 | 10037 ft | 310 kts | 72° |
| 2026-04-27 01:07 | 24.87180 | 55.10970 | 10214 ft | 334 kts | 73° |
| 2026-04-27 01:07 | 24.87724 | 55.13565 | 10408 ft | 359 kts | 75° |
| 2026-04-27 01:07 | 24.88279 | 55.16317 | 10588 ft | 383 kts | 75° |
| 2026-04-27 01:07 | 24.88924 | 55.19234 | 10913 ft | 397 kts | 69° |
| 2026-04-27 01:08 | 24.89937 | 55.22058 | 11495 ft | 405 kts | 63° |
| 2026-04-27 01:08 | 24.91096 | 55.24923 | 12303 ft | 410 kts | 64° |
| 2026-04-27 01:08 | 24.92236 | 55.27817 | 13174 ft | 415 kts | 64° |
| 2026-04-27 01:08 | 24.93357 | 55.30782 | 13918 ft | 421 kts | 65° |
| 2026-04-27 01:09 | 24.94467 | 55.33790 | 14622 ft | 426 kts | 66° |
| 2026-04-27 01:09 | 24.95589 | 55.36841 | 15355 ft | 431 kts | 66° |
| 2026-04-27 01:09 | 24.96707 | 55.39876 | 16074 ft | 435 kts | 66° |
| 2026-04-27 01:09 | 24.97830 | 55.43000 | 16782 ft | 441 kts | 68° |
| 2026-04-27 01:10 | 24.98905 | 55.46182 | 17473 ft | 446 kts | 69° |
| 2026-04-27 01:10 | 24.99986 | 55.49411 | 18159 ft | 451 kts | 69° |
| 2026-04-27 01:10 | 25.00895 | 55.52717 | 18589 ft | 453 kts | 82° |
| 2026-04-27 01:10 | 25.00841 | 55.56198 | 19025 ft | 459 kts | 102° |
| 2026-04-27 01:11 | 24.99871 | 55.59547 | 19630 ft | 459 kts | 118° |
| 2026-04-27 01:11 | 24.98248 | 55.62561 | 20240 ft | 458 kts | 125° |
| 2026-04-27 01:11 | 24.96529 | 55.65546 | 20810 ft | 464 kts | 124° |
| 2026-04-27 01:11 | 24.94838 | 55.68600 | 21369 ft | 469 kts | 123° |
| 2026-04-27 01:12 | 24.93118 | 55.71681 | 21940 ft | 473 kts | 126° |
| 2026-04-27 01:12 | 24.91201 | 55.74640 | 22504 ft | 476 kts | 129° |
| 2026-04-27 01:12 | 24.89171 | 55.77551 | 23064 ft | 480 kts | 130° |
| 2026-04-27 01:12 | 24.87163 | 55.80449 | 23591 ft | 484 kts | 129° |
| 2026-04-27 01:13 | 24.85153 | 55.83438 | 24078 ft | 487 kts | 128° |
| 2026-04-27 01:13 | 24.83155 | 55.86451 | 24640 ft | 488 kts | 129° |
| 2026-04-27 01:13 | 24.81131 | 55.89468 | 25099 ft | 492 kts | 129° |
| 2026-04-27 01:13 | 24.79070 | 55.92514 | 25454 ft | 498 kts | 129° |
| 2026-04-27 01:14 | 24.76891 | 55.95479 | 25874 ft | 498 kts | 136° |
| 2026-04-27 01:14 | 24.74369 | 55.98090 | 26285 ft | 499 kts | 142° |
| 2026-04-27 01:14 | 24.71717 | 56.00590 | 26744 ft | 503 kts | 142° |
| 2026-04-27 01:14 | 24.69093 | 56.03165 | 27194 ft | 507 kts | 141° |
| 2026-04-27 01:15 | 24.66524 | 56.05786 | 27618 ft | 511 kts | 140° |
| 2026-04-27 01:15 | 24.63918 | 56.08481 | 27992 ft | 515 kts | 140° |
| 2026-04-27 01:15 | 24.61287 | 56.11190 | 28359 ft | 519 kts | 140° |
| 2026-04-27 01:15 | 24.58634 | 56.13911 | 28736 ft | 523 kts | 140° |
| 2026-04-27 01:16 | 24.56037 | 56.16746 | 29088 ft | 530 kts | 135° |
| 2026-04-27 01:16 | 24.53605 | 56.19822 | 29444 ft | 534 kts | 134° |
| 2026-04-27 01:16 | 24.51200 | 56.22936 | 29790 ft | 537 kts | 133° |
| 2026-04-27 01:16 | 24.48779 | 56.26074 | 30168 ft | 538 kts | 133° |
| 2026-04-27 01:17 | 24.46388 | 56.29156 | 30548 ft | 539 kts | 133° |
| 2026-04-27 01:17 | 24.43912 | 56.32322 | 30920 ft | 540 kts | 133° |
| 2026-04-27 01:17 | 24.41486 | 56.35406 | 31263 ft | 540 kts | 133° |
| 2026-04-27 01:17 | 24.39030 | 56.38520 | 31640 ft | 540 kts | 133° |
| 2026-04-27 01:18 | 24.36571 | 56.41640 | 32003 ft | 541 kts | 133° |
| 2026-04-27 01:18 | 24.34109 | 56.44764 | 32398 ft | 541 kts | 133° |
| 2026-04-27 01:18 | 24.31641 | 56.47892 | 32770 ft | 541 kts | 133° |
| 2026-04-27 01:18 | 24.29209 | 56.51055 | 33129 ft | 543 kts | 129° |
| 2026-04-27 01:19 | 24.26957 | 56.54384 | 33485 ft | 544 kts | 127° |
| 2026-04-27 01:19 | 24.24743 | 56.57756 | 33749 ft | 547 kts | 127° |
| 2026-04-27 01:19 | 24.22530 | 56.61143 | 33814 ft | 546 kts | 127° |
| 2026-04-27 01:20 | 24.18132 | 56.67833 | 33798 ft | 539 kts | 127° |
| 2026-04-27 01:20 | 24.13717 | 56.74475 | 33800 ft | 539 kts | 127° |
| 2026-04-27 01:21 | 24.09283 | 56.81126 | 33826 ft | 540 kts | 127° |
| 2026-04-27 01:21 | 24.04872 | 56.87741 | 33815 ft | 540 kts | 127° |
| 2026-04-27 01:22 | 24.00420 | 56.94386 | 33804 ft | 541 kts | 127° |
| 2026-04-27 01:22 | 23.95954 | 57.01016 | 33820 ft | 540 kts | 127° |
| 2026-04-27 01:23 | 23.91497 | 57.07636 | 33811 ft | 540 kts | 127° |
| 2026-04-27 01:23 | 23.87069 | 57.14210 | 33812 ft | 540 kts | 127° |
| 2026-04-27 01:24 | 23.82620 | 57.20827 | 33825 ft | 539 kts | 127° |
| 2026-04-27 01:24 | 23.78155 | 57.27464 | 33813 ft | 539 kts | 127° |
| 2026-04-27 01:25 | 23.73735 | 57.34023 | 33814 ft | 539 kts | 127° |
| 2026-04-27 01:25 | 23.69214 | 57.40574 | 33806 ft | 539 kts | 129° |
| 2026-04-27 01:26 | 23.64524 | 57.46963 | 33830 ft | 539 kts | 130° |
| 2026-04-27 01:26 | 23.59868 | 57.53303 | 33819 ft | 539 kts | 129° |
| 2026-04-27 01:27 | 23.55202 | 57.59726 | 33849 ft | 539 kts | 129° |
| 2026-04-27 01:27 | 23.50548 | 57.66135 | 34034 ft | 543 kts | 129° |
| 2026-04-27 01:27 | 23.48188 | 57.69376 | 34404 ft | 542 kts | 129° |
| 2026-04-27 01:28 | 23.45863 | 57.72555 | 34764 ft | 540 kts | 129° |
| 2026-04-27 01:28 | 23.43516 | 57.75755 | 35197 ft | 538 kts | 129° |
| 2026-04-27 01:28 | 23.41184 | 57.78930 | 35580 ft | 537 kts | 129° |
| 2026-04-27 01:28 | 23.38841 | 57.82121 | 35791 ft | 538 kts | 129° |
| 2026-04-27 01:29 | 23.36498 | 57.85312 | 35840 ft | 540 kts | 129° |
| 2026-04-27 01:29 | 23.31828 | 57.91674 | 35892 ft | 538 kts | 129° |
| 2026-04-27 01:30 | 23.27171 | 57.98006 | 35848 ft | 532 kts | 129° |
| 2026-04-27 01:30 | 23.22705 | 58.04386 | 35856 ft | 528 kts | 124° |
| 2026-04-27 01:31 | 23.18579 | 58.10989 | 35863 ft | 527 kts | 124° |
| 2026-04-27 01:31 | 23.14472 | 58.17562 | 35864 ft | 529 kts | 124° |
| 2026-04-27 01:32 | 23.10286 | 58.24192 | 35867 ft | 532 kts | 124° |
| 2026-04-27 01:32 | 23.06087 | 58.30829 | 35869 ft | 534 kts | 124° |
| 2026-04-27 01:33 | 23.01316 | 58.37035 | 35850 ft | 535 kts | 137° |
| 2026-04-27 01:33 | 22.95484 | 58.41974 | 35851 ft | 534 kts | 150° |
| 2026-04-27 01:34 | 22.89095 | 58.46099 | 35863 ft | 533 kts | 151° |
| 2026-04-27 01:34 | 22.82758 | 58.50206 | 35855 ft | 533 kts | 150° |
| 2026-04-27 01:35 | 22.76407 | 58.54406 | 35856 ft | 533 kts | 150° |
| 2026-04-27 01:35 | 22.70085 | 58.58596 | 35851 ft | 532 kts | 150° |
| 2026-04-27 01:36 | 22.64822 | 58.62071 | 35850 ft | 532 kts | 150° |
| 2026-04-27 01:36 | 22.57481 | 58.66912 | 35843 ft | 531 kts | 150° |
| 2026-04-27 01:37 | 22.52231 | 58.70373 | 35837 ft | 530 kts | 150° |
| 2026-04-27 01:37 | 22.45928 | 58.74527 | 35849 ft | 530 kts | 150° |
| 2026-04-27 01:38 | 22.39606 | 58.78687 | 35839 ft | 530 kts | 150° |
| 2026-04-27 01:38 | 22.33317 | 58.82822 | 35841 ft | 531 kts | 150° |
| 2026-04-27 01:39 | 22.26997 | 58.86973 | 35837 ft | 531 kts | 149° |
| 2026-04-27 01:39 | 22.20710 | 58.91096 | 35832 ft | 531 kts | 150° |
| 2026-04-27 01:40 | 22.14386 | 58.95231 | 35834 ft | 531 kts | 150° |
| 2026-04-27 01:40 | 22.08058 | 58.99366 | 35826 ft | 531 kts | 150° |
| 2026-04-27 01:41 | 22.01744 | 59.03489 | 35828 ft | 530 kts | 150° |
| 2026-04-27 01:41 | 21.95451 | 59.07595 | 35822 ft | 530 kts | 150° |
| 2026-04-27 01:42 | 21.89124 | 59.11719 | 35820 ft | 530 kts | 150° |
| 2026-04-27 01:42 | 21.82804 | 59.15833 | 35807 ft | 530 kts | 149° |
| 2026-04-27 01:43 | 21.76522 | 59.19919 | 35809 ft | 530 kts | 149° |
| 2026-04-27 01:43 | 21.70209 | 59.24022 | 35811 ft | 529 kts | 149° |
| 2026-04-27 01:44 | 21.63890 | 59.28124 | 35810 ft | 529 kts | 149° |
| 2026-04-27 01:44 | 21.57616 | 59.32193 | 35799 ft | 529 kts | 149° |
| 2026-04-27 01:45 | 21.51302 | 59.36290 | 35807 ft | 529 kts | 149° |
| 2026-04-27 01:45 | 21.44998 | 59.40379 | 35801 ft | 529 kts | 149° |
| 2026-04-27 01:46 | 21.38685 | 59.44469 | 35807 ft | 529 kts | 149° |
| 2026-04-27 01:46 | 21.32416 | 59.48527 | 35793 ft | 529 kts | 149° |
| 2026-04-27 01:47 | 21.26102 | 59.52610 | 35806 ft | 528 kts | 149° |
| 2026-04-27 01:47 | 21.19843 | 59.56653 | 35808 ft | 528 kts | 149° |
| 2026-04-27 01:48 | 21.13545 | 59.60720 | 35812 ft | 528 kts | 149° |
| 2026-04-27 01:48 | 21.07244 | 59.64786 | 35802 ft | 528 kts | 148° |
| 2026-04-27 01:49 | 21.00977 | 59.68827 | 35807 ft | 527 kts | 148° |
| 2026-04-27 01:49 | 20.94667 | 59.72880 | 35808 ft | 527 kts | 149° |
| 2026-04-27 01:50 | 20.88403 | 59.76891 | 35810 ft | 527 kts | 149° |
| 2026-04-27 01:50 | 20.82103 | 59.80924 | 35803 ft | 526 kts | 148° |
| 2026-04-27 01:51 | 20.75837 | 59.84933 | 35807 ft | 526 kts | 148° |
| 2026-04-27 01:51 | 20.69541 | 59.88958 | 35813 ft | 526 kts | 148° |
| 2026-04-27 01:52 | 20.63299 | 59.92945 | 35814 ft | 525 kts | 148° |
| 2026-04-27 01:52 | 20.57010 | 59.96958 | 35813 ft | 525 kts | 148° |
| 2026-04-27 01:53 | 20.50763 | 60.00940 | 35820 ft | 524 kts | 148° |
| 2026-04-27 01:53 | 20.44475 | 60.04944 | 35821 ft | 524 kts | 148° |
| 2026-04-27 01:54 | 20.38230 | 60.08918 | 35828 ft | 524 kts | 148° |
| 2026-04-27 01:54 | 20.31960 | 60.12903 | 35828 ft | 523 kts | 148° |
| 2026-04-27 01:55 | 20.25727 | 60.16861 | 35825 ft | 523 kts | 148° |
| 2026-04-27 01:55 | 20.19498 | 60.20813 | 35830 ft | 523 kts | 148° |
| 2026-04-27 01:56 | 20.10143 | 60.26743 | 35826 ft | 522 kts | 148° |
| 2026-04-27 01:56 | 20.03854 | 60.30660 | 35823 ft | 522 kts | 151° |
| 2026-04-27 01:57 | 19.97391 | 60.34119 | 35825 ft | 522 kts | 153° |
| 2026-04-27 01:57 | 19.90868 | 60.37533 | 35827 ft | 521 kts | 153° |
| 2026-04-27 01:58 | 19.84357 | 60.40960 | 35830 ft | 521 kts | 152° |
| 2026-04-27 01:58 | 19.77906 | 60.44376 | 35831 ft | 521 kts | 152° |
| 2026-04-27 01:59 | 19.71395 | 60.47829 | 35828 ft | 521 kts | 152° |
| 2026-04-27 01:59 | 19.64935 | 60.51251 | 35828 ft | 520 kts | 152° |
| 2026-04-27 02:00 | 19.58439 | 60.54686 | 35845 ft | 520 kts | 152° |
| 2026-04-27 02:00 | 19.51971 | 60.58104 | 35835 ft | 520 kts | 152° |
| 2026-04-27 02:01 | 19.45480 | 60.61530 | 35832 ft | 520 kts | 152° |
| 2026-04-27 02:01 | 19.39022 | 60.64936 | 35839 ft | 520 kts | 152° |
| 2026-04-27 02:02 | 19.32528 | 60.68358 | 35839 ft | 520 kts | 152° |
| 2026-04-27 02:02 | 19.26080 | 60.71753 | 35837 ft | 520 kts | 152° |
| 2026-04-27 02:03 | 19.19569 | 60.75177 | 35839 ft | 520 kts | 152° |
| 2026-04-27 02:03 | 19.13081 | 60.78587 | 35839 ft | 520 kts | 152° |
| 2026-04-27 02:04 | 19.06630 | 60.81974 | 35844 ft | 520 kts | 152° |
| 2026-04-27 02:04 | 19.00159 | 60.85369 | 35846 ft | 520 kts | 152° |
| 2026-04-27 02:05 | 18.93681 | 60.88764 | 35853 ft | 520 kts | 152° |
| 2026-04-27 02:05 | 18.87199 | 60.92159 | 35839 ft | 519 kts | 152° |
| 2026-04-27 02:06 | 18.80729 | 60.95544 | 35844 ft | 519 kts | 152° |
| 2026-04-27 02:06 | 18.74249 | 60.98932 | 35864 ft | 519 kts | 152° |
| 2026-04-27 02:07 | 18.67755 | 61.02324 | 35849 ft | 519 kts | 152° |
| 2026-04-27 02:07 | 18.61324 | 61.05680 | 35855 ft | 518 kts | 152° |
| 2026-04-27 02:08 | 18.54842 | 61.09060 | 35854 ft | 518 kts | 152° |
| 2026-04-27 02:08 | 18.48375 | 61.12430 | 35864 ft | 517 kts | 152° |
| 2026-04-27 02:09 | 18.41945 | 61.15777 | 35861 ft | 517 kts | 152° |
| 2026-04-27 02:09 | 18.35525 | 61.19116 | 35859 ft | 516 kts | 152° |
| 2026-04-27 02:10 | 18.29087 | 61.22462 | 35859 ft | 515 kts | 152° |
| 2026-04-27 02:10 | 18.22657 | 61.25801 | 35862 ft | 515 kts | 152° |
| 2026-04-27 02:11 | 18.16231 | 61.29135 | 35868 ft | 514 kts | 152° |
| 2026-04-27 02:11 | 18.09846 | 61.32444 | 35869 ft | 513 kts | 152° |
| 2026-04-27 02:12 | 18.03419 | 61.35774 | 35874 ft | 513 kts | 152° |
| 2026-04-27 02:12 | 17.97054 | 61.39068 | 35870 ft | 512 kts | 152° |
| 2026-04-27 02:13 | 17.90644 | 61.42383 | 35872 ft | 512 kts | 152° |
| 2026-04-27 02:13 | 17.84269 | 61.45677 | 35871 ft | 511 kts | 151° |
| 2026-04-27 02:14 | 17.77876 | 61.48978 | 35869 ft | 510 kts | 151° |
| 2026-04-27 02:14 | 17.71490 | 61.52272 | 35874 ft | 510 kts | 151° |
| 2026-04-27 02:15 | 17.65154 | 61.55538 | 35878 ft | 509 kts | 151° |
| 2026-04-27 02:15 | 17.58788 | 61.58817 | 35865 ft | 509 kts | 151° |
| 2026-04-27 02:16 | 17.52433 | 61.62088 | 35877 ft | 508 kts | 151° |
| 2026-04-27 02:16 | 17.46121 | 61.65334 | 35869 ft | 508 kts | 151° |
| 2026-04-27 02:17 | 17.39772 | 61.68597 | 35877 ft | 508 kts | 151° |
| 2026-04-27 02:17 | 17.33430 | 61.71853 | 35881 ft | 508 kts | 151° |
| 2026-04-27 02:18 | 17.27070 | 61.75116 | 35882 ft | 507 kts | 151° |
| 2026-04-27 02:18 | 17.20766 | 61.78348 | 35874 ft | 507 kts | 151° |
| 2026-04-27 02:19 | 17.14417 | 61.81601 | 35873 ft | 507 kts | 151° |
| 2026-04-27 02:19 | 17.08115 | 61.84827 | 35883 ft | 506 kts | 151° |
| 2026-04-27 02:20 | 17.01768 | 61.88074 | 35883 ft | 506 kts | 151° |
| 2026-04-27 02:20 | 16.95438 | 61.91309 | 35883 ft | 506 kts | 151° |
| 2026-04-27 02:21 | 16.89154 | 61.94520 | 35885 ft | 506 kts | 151° |
| 2026-04-27 02:21 | 16.82838 | 61.97743 | 35883 ft | 505 kts | 151° |
| 2026-04-27 02:22 | 16.76517 | 62.00968 | 35884 ft | 505 kts | 151° |
| 2026-04-27 02:22 | 16.70202 | 62.04186 | 35886 ft | 505 kts | 151° |
| 2026-04-27 02:23 | 16.63893 | 62.07398 | 35890 ft | 505 kts | 151° |
| 2026-04-27 02:23 | 16.58638 | 62.10074 | 35891 ft | 505 kts | 151° |
| 2026-04-27 02:24 | 16.52312 | 62.13292 | 35886 ft | 505 kts | 151° |
| 2026-04-27 02:24 | 16.46039 | 62.16482 | 35881 ft | 505 kts | 151° |
| 2026-04-27 02:25 | 16.38690 | 62.20216 | 35895 ft | 504 kts | 152° |
| 2026-04-27 02:25 | 16.33439 | 62.22882 | 35889 ft | 503 kts | 152° |
| 2026-04-27 02:26 | 16.27157 | 62.26069 | 35889 ft | 501 kts | 152° |
| 2026-04-27 02:26 | 16.20888 | 62.29247 | 35883 ft | 499 kts | 152° |
| 2026-04-27 02:27 | 16.14659 | 62.32404 | 35890 ft | 498 kts | 152° |
| 2026-04-27 02:27 | 16.08433 | 62.35556 | 35895 ft | 496 kts | 152° |
| 2026-04-27 02:28 | 16.02273 | 62.38673 | 35887 ft | 495 kts | 152° |
| 2026-04-27 02:28 | 15.96052 | 62.41819 | 35889 ft | 495 kts | 152° |
| 2026-04-27 02:29 | 15.89891 | 62.44932 | 35887 ft | 495 kts | 152° |
| 2026-04-27 02:29 | 15.83690 | 62.48063 | 35888 ft | 495 kts | 153° |
| 2026-04-27 02:30 | 15.77530 | 62.51171 | 35889 ft | 494 kts | 153° |
| 2026-04-27 02:30 | 15.71343 | 62.54290 | 35888 ft | 494 kts | 153° |
| 2026-04-27 02:31 | 15.65149 | 62.57410 | 35884 ft | 493 kts | 154° |
| 2026-04-27 02:31 | 15.58985 | 62.60516 | 35891 ft | 493 kts | 153° |
| 2026-04-27 02:32 | 15.52812 | 62.63621 | 35892 ft | 492 kts | 155° |
| 2026-04-27 02:32 | 15.46684 | 62.66702 | 35887 ft | 491 kts | 155° |
| 2026-04-27 02:33 | 15.40519 | 62.69801 | 35879 ft | 489 kts | 155° |
| 2026-04-27 02:33 | 15.34419 | 62.72865 | 35883 ft | 488 kts | 155° |
| 2026-04-27 02:34 | 15.28301 | 62.75935 | 35889 ft | 487 kts | 155° |
| 2026-04-27 02:34 | 15.22229 | 62.78980 | 35882 ft | 487 kts | 155° |
| 2026-04-27 02:35 | 15.16128 | 62.82038 | 35887 ft | 486 kts | 155° |
| 2026-04-27 02:35 | 15.10031 | 62.85094 | 35891 ft | 484 kts | 156° |
| 2026-04-27 02:36 | 15.04013 | 62.88106 | 35883 ft | 483 kts | 156° |
| 2026-04-27 02:36 | 14.97965 | 62.91131 | 35887 ft | 482 kts | 156° |
| 2026-04-27 02:37 | 14.91928 | 62.94150 | 35894 ft | 480 kts | 156° |
| 2026-04-27 02:37 | 14.85905 | 62.97159 | 35892 ft | 479 kts | 156° |
| 2026-04-27 02:38 | 14.79929 | 63.00143 | 35892 ft | 478 kts | 156° |
| 2026-04-27 02:38 | 14.73928 | 63.03137 | 35892 ft | 477 kts | 156° |
| 2026-04-27 02:39 | 14.67963 | 63.06112 | 35889 ft | 477 kts | 156° |
| 2026-04-27 02:39 | 14.61963 | 63.09102 | 35894 ft | 476 kts | 157° |
| 2026-04-27 02:40 | 14.56024 | 63.12061 | 35888 ft | 475 kts | 157° |
| 2026-04-27 02:40 | 14.50055 | 63.15033 | 35890 ft | 474 kts | 157° |
| 2026-04-27 02:41 | 14.44152 | 63.17969 | 35890 ft | 473 kts | 157° |
| 2026-04-27 02:41 | 14.38199 | 63.20929 | 35891 ft | 473 kts | 157° |
| 2026-04-27 02:42 | 14.32308 | 63.23856 | 35896 ft | 472 kts | 157° |
| 2026-04-27 02:42 | 14.26393 | 63.26794 | 35886 ft | 471 kts | 157° |
| 2026-04-27 02:43 | 14.20511 | 63.29713 | 35887 ft | 471 kts | 157° |
| 2026-04-27 02:43 | 14.14588 | 63.32651 | 35892 ft | 470 kts | 157° |
| 2026-04-27 02:44 | 14.08716 | 63.35562 | 35895 ft | 470 kts | 157° |
| 2026-04-27 02:44 | 14.02807 | 63.38490 | 35899 ft | 470 kts | 157° |
| 2026-04-27 02:45 | 13.96895 | 63.41418 | 35893 ft | 470 kts | 157° |
| 2026-04-27 02:45 | 13.91029 | 63.44321 | 35894 ft | 470 kts | 158° |
| 2026-04-27 02:46 | 13.85122 | 63.47242 | 35894 ft | 469 kts | 158° |
| 2026-04-27 02:46 | 13.79263 | 63.50140 | 35894 ft | 468 kts | 158° |
| 2026-04-27 02:47 | 13.73381 | 63.53046 | 35895 ft | 468 kts | 158° |
| 2026-04-27 02:47 | 13.67501 | 63.55951 | 35893 ft | 468 kts | 158° |
| 2026-04-27 02:48 | 13.61410 | 63.57638 | 35897 ft | 454 kts | 184° |
| 2026-04-27 02:48 | 13.58293 | 63.57158 | 35907 ft | 451 kts | 195° |
| 2026-04-27 02:48 | 13.55348 | 63.56120 | 35898 ft | 452 kts | 205° |
| 2026-04-27 02:49 | 13.52675 | 63.54448 | 35887 ft | 450 kts | 218° |
| 2026-04-27 02:49 | 13.50248 | 63.52381 | 35909 ft | 452 kts | 219° |
| 2026-04-27 02:49 | 13.45402 | 63.48206 | 35905 ft | 456 kts | 219° |
| 2026-04-27 02:50 | 13.40511 | 63.44047 | 35905 ft | 459 kts | 218° |
| 2026-04-27 02:50 | 13.35550 | 63.39884 | 35897 ft | 461 kts | 218° |
| 2026-04-27 02:51 | 13.30599 | 63.35752 | 35896 ft | 461 kts | 218° |
| 2026-04-27 02:51 | 13.25607 | 63.31592 | 35895 ft | 460 kts | 218° |
| 2026-04-27 02:52 | 13.20662 | 63.27471 | 35895 ft | 459 kts | 218° |
| 2026-04-27 02:52 | 13.15703 | 63.23340 | 35895 ft | 457 kts | 218° |
| 2026-04-27 02:53 | 13.10764 | 63.19228 | 35898 ft | 456 kts | 218° |
| 2026-04-27 02:53 | 13.05863 | 63.15149 | 35898 ft | 455 kts | 218° |
| 2026-04-27 02:54 | 13.00944 | 63.11057 | 35899 ft | 454 kts | 218° |
| 2026-04-27 02:54 | 12.96052 | 63.06991 | 35899 ft | 455 kts | 218° |
| 2026-04-27 02:55 | 12.91134 | 63.02904 | 35896 ft | 455 kts | 218° |
| 2026-04-27 02:55 | 12.86228 | 62.98830 | 35897 ft | 456 kts | 218° |
| 2026-04-27 02:56 | 12.81285 | 62.94727 | 35897 ft | 457 kts | 218° |
| 2026-04-27 02:56 | 12.76338 | 62.90623 | 35897 ft | 457 kts | 218° |
| 2026-04-27 02:57 | 12.71414 | 62.86540 | 35899 ft | 457 kts | 218° |
| 2026-04-27 02:57 | 12.66471 | 62.82444 | 35906 ft | 456 kts | 218° |
| 2026-04-27 02:58 | 12.61530 | 62.78351 | 35896 ft | 456 kts | 218° |
| 2026-04-27 02:58 | 12.56587 | 62.74259 | 35900 ft | 456 kts | 218° |
| 2026-04-27 02:59 | 12.51676 | 62.70195 | 35898 ft | 456 kts | 218° |
| 2026-04-27 02:59 | 12.46730 | 62.66104 | 35899 ft | 456 kts | 218° |
| 2026-04-27 03:00 | 12.41808 | 62.62036 | 35899 ft | 455 kts | 218° |
| 2026-04-27 03:00 | 12.36881 | 62.57965 | 35901 ft | 455 kts | 218° |
| 2026-04-27 03:01 | 12.31938 | 62.53883 | 35902 ft | 455 kts | 217° |
| 2026-04-27 03:01 | 12.27030 | 62.49832 | 35897 ft | 456 kts | 218° |
| 2026-04-27 03:02 | 12.22096 | 62.45761 | 35899 ft | 456 kts | 218° |
| 2026-04-27 03:02 | 12.17148 | 62.41682 | 35899 ft | 457 kts | 218° |
| 2026-04-27 03:03 | 12.09733 | 62.35571 | 35902 ft | 457 kts | 218° |
| 2026-04-27 03:04 | 12.04790 | 62.31500 | 35898 ft | 457 kts | 218° |
| 2026-04-27 03:04 | 11.99822 | 62.27411 | 35898 ft | 458 kts | 218° |
| 2026-04-27 03:05 | 11.94882 | 62.23346 | 35900 ft | 457 kts | 218° |
| 2026-04-27 03:05 | 11.89923 | 62.19268 | 35898 ft | 457 kts | 218° |
| 2026-04-27 03:06 | 11.84995 | 62.15217 | 35899 ft | 456 kts | 218° |
| 2026-04-27 03:06 | 11.80034 | 62.11141 | 35896 ft | 456 kts | 218° |
| 2026-04-27 03:07 | 11.75125 | 62.07110 | 35899 ft | 455 kts | 218° |
| 2026-04-27 03:07 | 11.70182 | 62.03052 | 35901 ft | 455 kts | 218° |
| 2026-04-27 03:08 | 11.65236 | 61.98995 | 35900 ft | 455 kts | 218° |
| 2026-04-27 03:08 | 11.60317 | 61.94961 | 35900 ft | 455 kts | 218° |
| 2026-04-27 03:09 | 11.55387 | 61.90920 | 35900 ft | 455 kts | 218° |
| 2026-04-27 03:09 | 11.50442 | 61.86869 | 35897 ft | 455 kts | 218° |
| 2026-04-27 03:10 | 11.45528 | 61.82845 | 35898 ft | 454 kts | 218° |
| 2026-04-27 03:10 | 11.40588 | 61.78802 | 35900 ft | 454 kts | 218° |
| 2026-04-27 03:11 | 11.35696 | 61.74799 | 35902 ft | 454 kts | 218° |
| 2026-04-27 03:11 | 11.30762 | 61.70764 | 35898 ft | 454 kts | 218° |
| 2026-04-27 03:12 | 11.25832 | 61.66735 | 35898 ft | 453 kts | 217° |
| 2026-04-27 03:12 | 11.20928 | 61.62728 | 35897 ft | 453 kts | 217° |
| 2026-04-27 03:13 | 11.16027 | 61.58726 | 35899 ft | 453 kts | 217° |
| 2026-04-27 03:13 | 11.11102 | 61.54705 | 35894 ft | 453 kts | 217° |
| 2026-04-27 03:14 | 11.07016 | 61.51372 | 35895 ft | 452 kts | 217° |
| 2026-04-27 03:14 | 11.02094 | 61.47357 | 35894 ft | 452 kts | 217° |
| 2026-04-27 03:15 | 10.97194 | 61.43363 | 35896 ft | 452 kts | 217° |
| 2026-04-27 03:15 | 10.92277 | 61.39355 | 35895 ft | 452 kts | 217° |
| 2026-04-27 03:16 | 10.87378 | 61.35365 | 35898 ft | 452 kts | 217° |
| 2026-04-27 03:16 | 10.82465 | 61.31365 | 35900 ft | 451 kts | 217° |
| 2026-04-27 03:17 | 10.77594 | 61.27401 | 35898 ft | 451 kts | 217° |
| 2026-04-27 03:17 | 10.72695 | 61.23415 | 35898 ft | 451 kts | 217° |
| 2026-04-27 03:18 | 10.67796 | 61.19431 | 35894 ft | 450 kts | 217° |
| 2026-04-27 03:18 | 10.62899 | 61.15452 | 35897 ft | 450 kts | 217° |
| 2026-04-27 03:19 | 10.57999 | 61.11471 | 35894 ft | 450 kts | 217° |
| 2026-04-27 03:19 | 10.53131 | 61.07517 | 35900 ft | 449 kts | 217° |
| 2026-04-27 03:20 | 10.48248 | 61.03553 | 35904 ft | 449 kts | 217° |
| 2026-04-27 03:20 | 10.43359 | 60.99586 | 35898 ft | 448 kts | 217° |
| 2026-04-27 03:21 | 10.38516 | 60.95657 | 35902 ft | 448 kts | 217° |
| 2026-04-27 03:21 | 10.33640 | 60.91704 | 35901 ft | 448 kts | 217° |
| 2026-04-27 03:22 | 10.28793 | 60.87776 | 35900 ft | 447 kts | 217° |
| 2026-04-27 03:22 | 10.23917 | 60.83826 | 35898 ft | 447 kts | 217° |
| 2026-04-27 03:23 | 10.19042 | 60.79878 | 35900 ft | 447 kts | 217° |
| 2026-04-27 03:23 | 10.14192 | 60.75953 | 35899 ft | 448 kts | 217° |
| 2026-04-27 03:24 | 10.09332 | 60.72020 | 35905 ft | 448 kts | 217° |
| 2026-04-27 03:24 | 10.04448 | 60.68070 | 35897 ft | 448 kts | 217° |
| 2026-04-27 03:25 | 9.99579 | 60.64133 | 35900 ft | 448 kts | 217° |
| 2026-04-27 03:25 | 9.94695 | 60.60185 | 35901 ft | 448 kts | 217° |
| 2026-04-27 03:26 | 9.89829 | 60.56254 | 35898 ft | 448 kts | 217° |
| 2026-04-27 03:26 | 9.84937 | 60.52303 | 35899 ft | 448 kts | 217° |
| 2026-04-27 03:27 | 9.80093 | 60.48394 | 35898 ft | 448 kts | 217° |
| 2026-04-27 03:27 | 9.75218 | 60.44460 | 35903 ft | 447 kts | 217° |
| 2026-04-27 03:28 | 9.70369 | 60.40548 | 35895 ft | 447 kts | 217° |
| 2026-04-27 03:28 | 9.65499 | 60.36621 | 35904 ft | 447 kts | 217° |
| 2026-04-27 03:29 | 9.60634 | 60.32701 | 35900 ft | 447 kts | 217° |
| 2026-04-27 03:29 | 9.55780 | 60.28789 | 35902 ft | 447 kts | 217° |
| 2026-04-27 03:30 | 9.50906 | 60.24863 | 35904 ft | 447 kts | 217° |
| 2026-04-27 03:30 | 9.46063 | 60.20964 | 35905 ft | 446 kts | 217° |
| 2026-04-27 03:31 | 9.41187 | 60.17040 | 35905 ft | 447 kts | 217° |
| 2026-04-27 03:31 | 9.36325 | 60.13127 | 35901 ft | 447 kts | 217° |
| 2026-04-27 03:32 | 9.31443 | 60.09200 | 35904 ft | 447 kts | 217° |
| 2026-04-27 03:32 | 9.26592 | 60.05300 | 35900 ft | 447 kts | 217° |
| 2026-04-27 03:33 | 9.21743 | 60.01317 | 35902 ft | 448 kts | 220° |
| 2026-04-27 03:33 | 9.17473 | 59.96723 | 35904 ft | 452 kts | 229° |
| 2026-04-27 03:34 | 9.13684 | 59.91623 | 35902 ft | 453 kts | 230° |
| 2026-04-27 03:34 | 9.09893 | 59.86513 | 35910 ft | 453 kts | 230° |
| 2026-04-27 03:35 | 9.06123 | 59.81458 | 35905 ft | 453 kts | 230° |
| 2026-04-27 03:35 | 9.02321 | 59.76375 | 35903 ft | 453 kts | 230° |
| 2026-04-27 03:36 | 8.98510 | 59.71288 | 35901 ft | 453 kts | 230° |
| 2026-04-27 03:36 | 8.94690 | 59.66191 | 35904 ft | 453 kts | 230° |
| 2026-04-27 03:37 | 8.90899 | 59.61133 | 35901 ft | 453 kts | 230° |
| 2026-04-27 03:37 | 8.87107 | 59.56075 | 35901 ft | 453 kts | 230° |
| 2026-04-27 03:38 | 8.83299 | 59.50998 | 35906 ft | 453 kts | 230° |
| 2026-04-27 03:38 | 8.79486 | 59.45916 | 35904 ft | 453 kts | 230° |
| 2026-04-27 03:39 | 8.75685 | 59.40853 | 35907 ft | 453 kts | 230° |
| 2026-04-27 03:39 | 8.71872 | 59.35775 | 35907 ft | 453 kts | 230° |
| 2026-04-27 03:40 | 8.68067 | 59.30711 | 35910 ft | 453 kts | 230° |
| 2026-04-27 03:40 | 8.64245 | 59.25625 | 35907 ft | 453 kts | 230° |
| 2026-04-27 03:41 | 8.60445 | 59.20571 | 35906 ft | 454 kts | 230° |
| 2026-04-27 03:41 | 8.56619 | 59.15483 | 35908 ft | 454 kts | 230° |
| 2026-04-27 03:42 | 8.52797 | 59.10403 | 35907 ft | 454 kts | 230° |
| 2026-04-27 03:42 | 8.48976 | 59.05326 | 35906 ft | 454 kts | 230° |
| 2026-04-27 03:43 | 8.45168 | 59.00268 | 35907 ft | 454 kts | 230° |
| 2026-04-27 03:43 | 8.41331 | 58.95174 | 35907 ft | 454 kts | 230° |
| 2026-04-27 03:44 | 8.37512 | 58.90105 | 35905 ft | 455 kts | 230° |
| 2026-04-27 03:44 | 8.33666 | 58.85003 | 35904 ft | 455 kts | 230° |
| 2026-04-27 03:45 | 8.29852 | 58.79945 | 35907 ft | 455 kts | 229° |
| 2026-04-27 03:45 | 8.26029 | 58.74876 | 35907 ft | 455 kts | 229° |
| 2026-04-27 03:46 | 8.22187 | 58.69783 | 35907 ft | 455 kts | 229° |
| 2026-04-27 03:46 | 8.18353 | 58.64704 | 35906 ft | 455 kts | 229° |
| 2026-04-27 03:47 | 8.14513 | 58.59619 | 35906 ft | 455 kts | 229° |
| 2026-04-27 03:47 | 8.10692 | 58.54560 | 35910 ft | 455 kts | 229° |
| 2026-04-27 03:48 | 8.06858 | 58.49486 | 35900 ft | 454 kts | 229° |
| 2026-04-27 03:48 | 8.03021 | 58.44410 | 35906 ft | 455 kts | 229° |
| 2026-04-27 03:49 | 7.99195 | 58.39352 | 35909 ft | 455 kts | 229° |
| 2026-04-27 03:49 | 7.95332 | 58.34244 | 35909 ft | 455 kts | 229° |
| 2026-04-27 03:50 | 7.91496 | 58.29174 | 35909 ft | 456 kts | 229° |
| 2026-04-27 03:50 | 7.87642 | 58.24083 | 35909 ft | 456 kts | 229° |
| 2026-04-27 03:51 | 7.83789 | 58.18994 | 35916 ft | 456 kts | 229° |
| 2026-04-27 03:51 | 7.79952 | 58.13928 | 35910 ft | 457 kts | 229° |
| 2026-04-27 03:52 | 7.76082 | 58.08819 | 35918 ft | 458 kts | 229° |
| 2026-04-27 03:52 | 7.74159 | 58.06282 | 36089 ft | 461 kts | 229° |
| 2026-04-27 03:52 | 7.72206 | 58.03704 | 36436 ft | 459 kts | 229° |
| 2026-04-27 03:52 | 7.70274 | 58.01154 | 36844 ft | 457 kts | 229° |
| 2026-04-27 03:53 | 7.68338 | 57.98601 | 37226 ft | 455 kts | 229° |
| 2026-04-27 03:53 | 7.66439 | 57.96101 | 37577 ft | 454 kts | 229° |
| 2026-04-27 03:53 | 7.64508 | 57.93558 | 37823 ft | 455 kts | 229° |
| 2026-04-27 03:54 | 7.60622 | 57.88446 | 37925 ft | 460 kts | 229° |
| 2026-04-27 03:54 | 7.56731 | 57.83321 | 37907 ft | 459 kts | 229° |
| 2026-04-27 03:55 | 7.52886 | 57.78256 | 37911 ft | 456 kts | 229° |
| 2026-04-27 03:55 | 7.49030 | 57.73181 | 37911 ft | 454 kts | 229° |
| 2026-04-27 03:56 | 7.45181 | 57.68117 | 37911 ft | 454 kts | 229° |
| 2026-04-27 03:56 | 7.41361 | 57.63094 | 37908 ft | 455 kts | 230° |
| 2026-04-27 03:57 | 7.37500 | 57.58018 | 37916 ft | 456 kts | 230° |
| 2026-04-27 03:57 | 7.33624 | 57.52924 | 37913 ft | 459 kts | 230° |
| 2026-04-27 03:58 | 7.29754 | 57.47839 | 37917 ft | 461 kts | 230° |
| 2026-04-27 03:58 | 7.25834 | 57.42691 | 37915 ft | 462 kts | 230° |
| 2026-04-27 03:59 | 7.21934 | 57.37569 | 37917 ft | 463 kts | 230° |
| 2026-04-27 03:59 | 7.18006 | 57.32413 | 37917 ft | 464 kts | 230° |
| 2026-04-27 04:00 | 7.14079 | 57.27259 | 37911 ft | 464 kts | 230° |
| 2026-04-27 04:00 | 7.10140 | 57.22090 | 37912 ft | 464 kts | 230° |
| 2026-04-27 04:01 | 7.06228 | 57.16960 | 37917 ft | 463 kts | 230° |
| 2026-04-27 04:01 | 7.02304 | 57.11815 | 37912 ft | 463 kts | 230° |
| 2026-04-27 04:02 | 6.98381 | 57.06675 | 37914 ft | 463 kts | 230° |
| 2026-04-27 04:02 | 6.94457 | 57.01533 | 37913 ft | 462 kts | 230° |
| 2026-04-27 04:03 | 6.90551 | 56.96416 | 37914 ft | 462 kts | 230° |
| 2026-04-27 04:03 | 6.86625 | 56.91276 | 37919 ft | 463 kts | 230° |
| 2026-04-27 04:04 | 6.82717 | 56.86160 | 37915 ft | 463 kts | 230° |
| 2026-04-27 04:04 | 6.78781 | 56.81010 | 37911 ft | 464 kts | 230° |
| 2026-04-27 04:05 | 6.74862 | 56.75883 | 37925 ft | 464 kts | 230° |
| 2026-04-27 04:05 | 6.70908 | 56.70712 | 37925 ft | 466 kts | 230° |
| 2026-04-27 04:06 | 6.66969 | 56.65561 | 37922 ft | 467 kts | 230° |
| 2026-04-27 04:06 | 6.63669 | 56.61248 | 37922 ft | 467 kts | 230° |
| 2026-04-27 04:07 | 6.57061 | 56.52613 | 37919 ft | 469 kts | 231° |
| 2026-04-27 04:07 | 6.53740 | 56.48275 | 37932 ft | 470 kts | 231° |
| 2026-04-27 04:08 | 6.49735 | 56.43043 | 37925 ft | 472 kts | 231° |
| 2026-04-27 04:08 | 6.45714 | 56.37792 | 37925 ft | 473 kts | 231° |
| 2026-04-27 04:09 | 6.41719 | 56.32580 | 37927 ft | 473 kts | 231° |
| 2026-04-27 04:09 | 6.37680 | 56.27318 | 37917 ft | 474 kts | 231° |
| 2026-04-27 04:10 | 6.33663 | 56.22084 | 37930 ft | 476 kts | 231° |
| 2026-04-27 04:10 | 6.29611 | 56.16804 | 37932 ft | 476 kts | 231° |
| 2026-04-27 04:11 | 6.25551 | 56.11514 | 37927 ft | 476 kts | 231° |
| 2026-04-27 04:11 | 6.21531 | 56.06279 | 37923 ft | 475 kts | 231° |
| 2026-04-27 04:12 | 6.17488 | 56.01015 | 37926 ft | 474 kts | 231° |
| 2026-04-27 04:12 | 6.13451 | 55.95760 | 37925 ft | 473 kts | 231° |
| 2026-04-27 04:13 | 6.09427 | 55.90523 | 37928 ft | 472 kts | 231° |
| 2026-04-27 04:13 | 6.05436 | 55.85332 | 37929 ft | 472 kts | 231° |
| 2026-04-27 04:14 | 6.01416 | 55.80103 | 37926 ft | 471 kts | 231° |
| 2026-04-27 04:14 | 5.97421 | 55.74909 | 37918 ft | 472 kts | 231° |
| 2026-04-27 04:15 | 5.93399 | 55.69680 | 37930 ft | 473 kts | 231° |
| 2026-04-27 04:15 | 5.89362 | 55.64434 | 37930 ft | 474 kts | 231° |
| 2026-04-27 04:16 | 5.85323 | 55.59187 | 37929 ft | 475 kts | 231° |
| 2026-04-27 04:16 | 5.81281 | 55.53936 | 37932 ft | 475 kts | 231° |
| 2026-04-27 04:17 | 5.77252 | 55.48706 | 37922 ft | 477 kts | 231° |
| 2026-04-27 04:17 | 5.73174 | 55.43412 | 37933 ft | 478 kts | 231° |
| 2026-04-27 04:18 | 5.69109 | 55.38136 | 37932 ft | 480 kts | 231° |
| 2026-04-27 04:18 | 5.65007 | 55.32813 | 37933 ft | 481 kts | 231° |
| 2026-04-27 04:19 | 5.60908 | 55.27496 | 37936 ft | 481 kts | 231° |
| 2026-04-27 04:19 | 5.56830 | 55.22207 | 37922 ft | 481 kts | 231° |
| 2026-04-27 04:20 | 5.52716 | 55.16872 | 37933 ft | 481 kts | 231° |
| 2026-04-27 04:20 | 5.48645 | 55.11594 | 37931 ft | 481 kts | 231° |
| 2026-04-27 04:21 | 5.44546 | 55.06282 | 37929 ft | 481 kts | 231° |
| 2026-04-27 04:21 | 5.40444 | 55.00966 | 37928 ft | 480 kts | 231° |
| 2026-04-27 04:22 | 5.36337 | 54.95648 | 37930 ft | 482 kts | 231° |
| 2026-04-27 04:22 | 5.32249 | 54.90355 | 37936 ft | 483 kts | 231° |
| 2026-04-27 04:23 | 5.28117 | 54.85002 | 37935 ft | 484 kts | 231° |
| 2026-04-27 04:23 | 5.24004 | 54.79677 | 37933 ft | 484 kts | 231° |
| 2026-04-27 04:24 | 5.19878 | 54.74334 | 37924 ft | 484 kts | 232° |
| 2026-04-27 04:24 | 5.15760 | 54.69003 | 37935 ft | 485 kts | 232° |
| 2026-04-27 04:25 | 5.11614 | 54.63638 | 37930 ft | 485 kts | 232° |
| 2026-04-27 04:25 | 5.07471 | 54.58277 | 37932 ft | 485 kts | 232° |
| 2026-04-27 04:26 | 5.03354 | 54.52952 | 37931 ft | 486 kts | 232° |
| 2026-04-27 04:26 | 4.99213 | 54.47597 | 37918 ft | 486 kts | 232° |
| 2026-04-27 04:27 | 4.95060 | 54.42227 | 37950 ft | 487 kts | 232° |
| 2026-04-27 04:27 | 4.90904 | 54.36856 | 37926 ft | 488 kts | 232° |
| 2026-04-27 04:28 | 4.86741 | 54.31475 | 37930 ft | 488 kts | 232° |
| 2026-04-27 04:28 | 4.82605 | 54.26131 | 37931 ft | 488 kts | 232° |
| 2026-04-27 04:29 | 4.78433 | 54.20743 | 37924 ft | 489 kts | 232° |
| 2026-04-27 04:29 | 4.74260 | 54.15353 | 37923 ft | 489 kts | 232° |
| 2026-04-27 04:30 | 4.70076 | 54.09950 | 37936 ft | 490 kts | 232° |
| 2026-04-27 04:30 | 4.65901 | 54.04561 | 37949 ft | 491 kts | 232° |
| 2026-04-27 04:31 | 4.61707 | 53.99148 | 37935 ft | 491 kts | 232° |
| 2026-04-27 04:31 | 4.57537 | 53.93768 | 37944 ft | 491 kts | 232° |
| 2026-04-27 04:32 | 4.53328 | 53.88337 | 37926 ft | 492 kts | 232° |
| 2026-04-27 04:32 | 4.49149 | 53.82948 | 37939 ft | 492 kts | 232° |
| 2026-04-27 04:33 | 4.44928 | 53.77505 | 37938 ft | 492 kts | 232° |
| 2026-04-27 04:33 | 4.40750 | 53.72118 | 37913 ft | 492 kts | 232° |
| 2026-04-27 04:34 | 4.36536 | 53.66685 | 37933 ft | 493 kts | 232° |
| 2026-04-27 04:34 | 4.32321 | 53.61254 | 37935 ft | 493 kts | 232° |
| 2026-04-27 04:35 | 4.28136 | 53.55862 | 37936 ft | 493 kts | 232° |
| 2026-04-27 04:35 | 4.23914 | 53.50423 | 37924 ft | 493 kts | 232° |
| 2026-04-27 04:36 | 4.19707 | 53.45005 | 37930 ft | 492 kts | 232° |
| 2026-04-27 04:36 | 4.15525 | 53.39620 | 37934 ft | 491 kts | 231° |
| 2026-04-27 04:37 | 4.11324 | 53.34211 | 37930 ft | 491 kts | 232° |
| 2026-04-27 04:37 | 4.07122 | 53.28802 | 37937 ft | 491 kts | 232° |
| 2026-04-27 04:38 | 4.02936 | 53.23415 | 37924 ft | 491 kts | 232° |
| 2026-04-27 04:38 | 3.98759 | 53.18040 | 37932 ft | 491 kts | 232° |
| 2026-04-27 04:39 | 3.94548 | 53.12623 | 37937 ft | 491 kts | 232° |
| 2026-04-27 04:39 | 3.90374 | 53.07254 | 37937 ft | 491 kts | 232° |
| 2026-04-27 04:40 | 3.86163 | 53.01839 | 37932 ft | 491 kts | 232° |
| 2026-04-27 04:40 | 3.81982 | 52.96463 | 37926 ft | 491 kts | 232° |
| 2026-04-27 04:41 | 3.77779 | 52.91059 | 37937 ft | 492 kts | 232° |
| 2026-04-27 04:41 | 3.73562 | 52.85640 | 37936 ft | 492 kts | 232° |
| 2026-04-27 04:42 | 3.69348 | 52.80224 | 37938 ft | 493 kts | 232° |
| 2026-04-27 04:42 | 3.65143 | 52.74821 | 37934 ft | 493 kts | 232° |
| 2026-04-27 04:43 | 3.60924 | 52.69400 | 37935 ft | 493 kts | 232° |
| 2026-04-27 04:43 | 3.56732 | 52.64016 | 37934 ft | 493 kts | 232° |
| 2026-04-27 04:44 | 3.52502 | 52.58584 | 37933 ft | 493 kts | 232° |
| 2026-04-27 04:44 | 3.48296 | 52.53182 | 37935 ft | 492 kts | 232° |
| 2026-04-27 04:45 | 3.44100 | 52.47793 | 37932 ft | 492 kts | 232° |
| 2026-04-27 04:45 | 3.39886 | 52.42383 | 37938 ft | 493 kts | 232° |
| 2026-04-27 04:46 | 3.35660 | 52.36960 | 37933 ft | 493 kts | 232° |
| 2026-04-27 04:46 | 3.31463 | 52.31574 | 37932 ft | 493 kts | 232° |
| 2026-04-27 04:47 | 3.27235 | 52.26147 | 37928 ft | 493 kts | 232° |
| 2026-04-27 04:47 | 3.23009 | 52.20721 | 37927 ft | 494 kts | 232° |
| 2026-04-27 04:48 | 3.18792 | 52.15308 | 37940 ft | 496 kts | 232° |
| 2026-04-27 04:48 | 3.14530 | 52.09839 | 37939 ft | 497 kts | 232° |
| 2026-04-27 04:49 | 3.10297 | 52.04407 | 37940 ft | 498 kts | 232° |
| 2026-04-27 04:49 | 3.06023 | 51.98925 | 37937 ft | 499 kts | 232° |
| 2026-04-27 04:50 | 3.01762 | 51.93459 | 37938 ft | 500 kts | 232° |
| 2026-04-27 04:50 | 2.97476 | 51.87961 | 37936 ft | 500 kts | 232° |
| 2026-04-27 04:51 | 2.93193 | 51.82469 | 37939 ft | 500 kts | 232° |
| 2026-04-27 04:51 | 2.88907 | 51.76974 | 37933 ft | 500 kts | 232° |
| 2026-04-27 04:52 | 2.84648 | 51.71514 | 37933 ft | 500 kts | 232° |
| 2026-04-27 04:52 | 2.80358 | 51.66014 | 37933 ft | 500 kts | 232° |
| 2026-04-27 04:53 | 2.76091 | 51.60545 | 37937 ft | 500 kts | 232° |
| 2026-04-27 04:53 | 2.71799 | 51.55046 | 37928 ft | 500 kts | 232° |
| 2026-04-27 04:54 | 2.67530 | 51.49574 | 37935 ft | 500 kts | 232° |
| 2026-04-27 04:54 | 2.63241 | 51.44079 | 37934 ft | 500 kts | 232° |
| 2026-04-27 04:55 | 2.59677 | 51.39515 | 37931 ft | 500 kts | 232° |
| 2026-04-27 04:55 | 2.54699 | 51.33138 | 37931 ft | 500 kts | 232° |
| 2026-04-27 04:56 | 2.51133 | 51.28570 | 37929 ft | 500 kts | 232° |
| 2026-04-27 04:56 | 2.46852 | 51.23088 | 37936 ft | 500 kts | 232° |
| 2026-04-27 04:57 | 2.42585 | 51.17625 | 37936 ft | 500 kts | 232° |
| 2026-04-27 04:57 | 2.38294 | 51.12131 | 37938 ft | 500 kts | 232° |
| 2026-04-27 04:58 | 2.34002 | 51.06636 | 37931 ft | 500 kts | 232° |